sensor_id;sensor_type;location;lat;lon;timestamp;pressure;altitude;pressure_sealevel;temperature;humidity
68376;BME280;55318;52.068;5.188;2022-12-18T00:01:00;102903.0;;;-2.2;95.71
68376;BME280;55318;52.068;5.188;2022-12-18T00:02:36;102904.0;;;-2.21;95.64
68376;BME280;55318;52.068;5.188;2022-12-18T00:04:18;102899.0;;;-2.37;96.16
68376;BME280;55318;52.068;5.188;2022-12-18T00:05:59;102884.99999999999;;;-2.27;95.83
68376;BME280;55318;52.068;5.188;2022-12-18T00:09:12;102879.0;;;-2.69;96.61
68376;BME280;55318;52.068;5.188;2022-12-18T00:10:48;102868.0;;;-2.56;96.93
68376;BME280;55318;52.068;5.188;2022-12-18T00:12:24;102861.99999999999;;;-2.55;97.02
68376;BME280;55318;52.068;5.188;2022-12-18T00:15:38;102866.00000000001;;;-2.59;97.3
68376;BME280;55318;52.068;5.188;2022-12-18T00:17:15;102864.00000000001;;;-2.67;97.16
68376;BME280;55318;52.068;5.188;2022-12-18T00:18:53;102864.00000000001;;;-2.68;97.7
68376;BME280;55318;52.068;5.188;2022-12-18T00:22:12;102869.0;;;-2.72;97.72
68376;BME280;55318;52.068;5.188;2022-12-18T00:23:49;102866.00000000001;;;-2.74;97.85
68376;BME280;55318;52.068;5.188;2022-12-18T00:25:26;102866.00000000001;;;-2.47;97.3
68376;BME280;55318;52.068;5.188;2022-12-18T00:27:03;102872.0;;;-2.39;96.36
68376;BME280;55318;52.068;5.188;2022-12-18T00:30:15;102872.0;;;-2.52;96.13
68376;BME280;55318;52.068;5.188;2022-12-18T00:31:52;102872.0;;;-2.52;96.04
68376;BME280;55318;52.068;5.188;2022-12-18T00:33:29;102868.0;;;-2.74;96.22
68376;BME280;55318;52.068;5.188;2022-12-18T00:35:06;102861.99999999999;;;-2.62;96.87
68376;BME280;55318;52.068;5.188;2022-12-18T00:38:19;102857.0;;;-2.73;96.97
68376;BME280;55318;52.068;5.188;2022-12-18T00:39:55;102858.99999999999;;;-2.54;96.63
68376;BME280;55318;52.068;5.188;2022-12-18T00:41:32;102867.0;;;-2.56;96.45
68376;BME280;55318;52.068;5.188;2022-12-18T00:44:45;102867.0;;;-2.58;96.6
68376;BME280;55318;52.068;5.188;2022-12-18T00:46:21;102858.99999999999;;;-2.55;96.57
68376;BME280;55318;52.068;5.188;2022-12-18T00:47:57;102857.0;;;-2.59;96.65
68376;BME280;55318;52.068;5.188;2022-12-18T00:51:09;102857.0;;;-2.64;96.57
68376;BME280;55318;52.068;5.188;2022-12-18T00:52:46;102858.99999999999;;;-2.67;96.65
68376;BME280;55318;52.068;5.188;2022-12-18T00:54:22;102853.0;;;-2.81;96.88
68376;BME280;55318;52.068;5.188;2022-12-18T00:55:59;102852.0;;;-2.8;97.12
68376;BME280;55318;52.068;5.188;2022-12-18T00:59:11;102854.0;;;-2.64;96.87
68376;BME280;55318;52.068;5.188;2022-12-18T01:00:48;102852.0;;;-2.59;96.29
68376;BME280;55318;52.068;5.188;2022-12-18T01:02:24;102856.0;;;-2.65;96.4
68376;BME280;55318;52.068;5.188;2022-12-18T01:05:39;102859.99999999999;;;-2.84;96.58
68376;BME280;55318;52.068;5.188;2022-12-18T01:07:15;102871.0;;;-2.79;96.86
68376;BME280;55318;52.068;5.188;2022-12-18T01:08:52;102874.0;;;-2.77;96.66
68376;BME280;55318;52.068;5.188;2022-12-18T01:12:05;102878.0;;;-2.69;96.3
68376;BME280;55318;52.068;5.188;2022-12-18T01:13:42;102878.0;;;-2.68;96.14
68376;BME280;55318;52.068;5.188;2022-12-18T01:15:18;102876.0;;;-2.6;96.21
68376;BME280;55318;52.068;5.188;2022-12-18T01:16:55;102867.0;;;-2.57;95.98
68376;BME280;55318;52.068;5.188;2022-12-18T01:20:10;102865.00000000001;;;-2.36;94.95
68376;BME280;55318;52.068;5.188;2022-12-18T01:21:47;102867.0;;;-2.57;95.29
68376;BME280;55318;52.068;5.188;2022-12-18T01:23:23;102871.0;;;-2.63;95.48
68376;BME280;55318;52.068;5.188;2022-12-18T01:26:40;102870.0;;;-2.43;95.02
68376;BME280;55318;52.068;5.188;2022-12-18T01:28:17;102874.0;;;-2.4;94.83
68376;BME280;55318;52.068;5.188;2022-12-18T01:29:53;102867.0;;;-2.36;94.52
68376;BME280;55318;52.068;5.188;2022-12-18T01:33:09;102863.00000000001;;;-2.4;94.89
68376;BME280;55318;52.068;5.188;2022-12-18T01:34:46;102863.00000000001;;;-2.47;94.9
68376;BME280;55318;52.068;5.188;2022-12-18T01:36:24;102867.0;;;-2.66;95.31
68376;BME280;55318;52.068;5.188;2022-12-18T01:38:01;102873.0;;;-2.68;95.51
68376;BME280;55318;52.068;5.188;2022-12-18T01:41:15;102879.0;;;-2.73;95.58
68376;BME280;55318;52.068;5.188;2022-12-18T01:42:55;102877.0;;;-2.7;95.39
68376;BME280;55318;52.068;5.188;2022-12-18T01:45:03;102878.0;;;-2.82;95.53
68376;BME280;55318;52.068;5.188;2022-12-18T01:46:57;102879.0;;;-2.86;95.94
68376;BME280;55318;52.068;5.188;2022-12-18T01:48:33;102877.0;;;-2.95;96.24
68376;BME280;55318;52.068;5.188;2022-12-18T01:51:51;102879.0;;;-3.09;96.32
68376;BME280;55318;52.068;5.188;2022-12-18T01:53:28;102879.0;;;-2.92;96.39
68376;BME280;55318;52.068;5.188;2022-12-18T01:55:05;102880.0;;;-2.71;95.55
68376;BME280;55318;52.068;5.188;2022-12-18T01:56:42;102875.0;;;-2.89;95.61
68376;BME280;55318;52.068;5.188;2022-12-18T02:00:03;102880.0;;;-2.91;95.76
68376;BME280;55318;52.068;5.188;2022-12-18T02:01:43;102879.0;;;-2.94;95.58
68376;BME280;55318;52.068;5.188;2022-12-18T02:03:20;102880.0;;;-2.96;95.61
68376;BME280;55318;52.068;5.188;2022-12-18T02:06:36;102886.99999999999;;;-3.05;95.48
68376;BME280;55318;52.068;5.188;2022-12-18T02:08:20;102883.0;;;-2.94;95.37
68376;BME280;55318;52.068;5.188;2022-12-18T02:10:06;102889.00000000001;;;-2.92;94.81
68376;BME280;55318;52.068;5.188;2022-12-18T02:11:50;102893.0;;;-2.96;94.76
68376;BME280;55318;52.068;5.188;2022-12-18T02:13:36;102893.0;;;-2.88;94.22
68376;BME280;55318;52.068;5.188;2022-12-18T02:17:06;102891.00000000001;;;-2.91;94.27
68376;BME280;55318;52.068;5.188;2022-12-18T02:18:50;102893.0;;;-2.77;94.03
68376;BME280;55318;52.068;5.188;2022-12-18T02:20:35;102892.0;;;-2.74;93.46
68376;BME280;55318;52.068;5.188;2022-12-18T02:22:24;102897.0;;;-2.84;93.09
68376;BME280;55318;52.068;5.188;2022-12-18T02:24:17;102894.0;;;-2.88;93.28
68376;BME280;55318;52.068;5.188;2022-12-18T02:26:06;102899.0;;;-2.98;93.48
68376;BME280;55318;52.068;5.188;2022-12-18T02:29:31;102894.0;;;-2.92;93.16
68376;BME280;55318;52.068;5.188;2022-12-18T02:31:11;102884.99999999999;;;-2.9;92.91
68376;BME280;55318;52.068;5.188;2022-12-18T02:32:53;102883.99999999999;;;-2.87;92.26
68376;BME280;55318;52.068;5.188;2022-12-18T02:34:34;102891.00000000001;;;-2.72;92.12
68376;BME280;55318;52.068;5.188;2022-12-18T02:37:53;102892.0;;;-2.86;91.85
68376;BME280;55318;52.068;5.188;2022-12-18T02:39:30;102892.0;;;-2.9;91.8
68376;BME280;55318;52.068;5.188;2022-12-18T02:41:10;102889.00000000001;;;-2.96;91.81
68376;BME280;55318;52.068;5.188;2022-12-18T02:42:46;102892.0;;;-2.93;91.72
68376;BME280;55318;52.068;5.188;2022-12-18T02:46:00;102882.0;;;-2.87;91.02
68376;BME280;55318;52.068;5.188;2022-12-18T02:47:56;102874.0;;;-2.97;91.28
68376;BME280;55318;52.068;5.188;2022-12-18T02:49:39;102874.0;;;-3.07;91.48
68376;BME280;55318;52.068;5.188;2022-12-18T02:51:24;102877.0;;;-3.07;91.54
68376;BME280;55318;52.068;5.188;2022-12-18T02:54:57;102880.0;;;-3.06;91.78
68376;BME280;55318;52.068;5.188;2022-12-18T02:56:44;102870.0;;;-2.97;91.05
68376;BME280;55318;52.068;5.188;2022-12-18T02:58:30;102867.0;;;-3.07;91.17
68376;BME280;55318;52.068;5.188;2022-12-18T03:00:12;102866.00000000001;;;-3.06;91.06
68376;BME280;55318;52.068;5.188;2022-12-18T03:01:55;102867.0;;;-3.15;91.25
68376;BME280;55318;52.068;5.188;2022-12-18T03:03:36;102864.00000000001;;;-3.2;91.0
68376;BME280;55318;52.068;5.188;2022-12-18T03:07:01;102856.0;;;-3.01;90.66
68376;BME280;55318;52.068;5.188;2022-12-18T03:08:44;102850.0;;;-3.07;90.17
68376;BME280;55318;52.068;5.188;2022-12-18T03:10:27;102848.0;;;-3.19;91.19
68376;BME280;55318;52.068;5.188;2022-12-18T03:12:09;102847.0;;;-3.02;90.78
68376;BME280;55318;52.068;5.188;2022-12-18T03:15:35;102848.0;;;-3.05;90.58
68376;BME280;55318;52.068;5.188;2022-12-18T03:17:16;102846.0;;;-2.97;90.1
68376;BME280;55318;52.068;5.188;2022-12-18T03:18:58;102841.00000000001;;;-2.89;89.28
68376;BME280;55318;52.068;5.188;2022-12-18T03:20:38;102838.00000000001;;;-2.97;89.41
68376;BME280;55318;52.068;5.188;2022-12-18T03:23:59;102829.0;;;-3.05;89.74
68376;BME280;55318;52.068;5.188;2022-12-18T03:25:39;102828.0;;;-3.19;89.95
68376;BME280;55318;52.068;5.188;2022-12-18T03:27:20;102821.0;;;-3.02;89.59
68376;BME280;55318;52.068;5.188;2022-12-18T03:29:06;102822.0;;;-3.0;89.56
68376;BME280;55318;52.068;5.188;2022-12-18T03:32:26;102825.0;;;-3.06;89.55
68376;BME280;55318;52.068;5.188;2022-12-18T03:34:09;102819.0;;;-3.12;89.5
68376;BME280;55318;52.068;5.188;2022-12-18T03:35:49;102821.0;;;-3.12;89.55
68376;BME280;55318;52.068;5.188;2022-12-18T03:37:26;102819.0;;;-3.08;89.29
68376;BME280;55318;52.068;5.188;2022-12-18T03:40:47;102822.0;;;-3.05;89.27
68376;BME280;55318;52.068;5.188;2022-12-18T03:42:40;102821.0;;;-3.08;89.12
68376;BME280;55318;52.068;5.188;2022-12-18T03:44:27;102816.00000000001;;;-3.16;89.21
68376;BME280;55318;52.068;5.188;2022-12-18T03:46:11;102814.00000000001;;;-3.19;88.98
68376;BME280;55318;52.068;5.188;2022-12-18T03:47:58;102814.00000000001;;;-3.3;89.63
68376;BME280;55318;52.068;5.188;2022-12-18T03:49:41;102816.00000000001;;;-3.18;89.28
68376;BME280;55318;52.068;5.188;2022-12-18T03:53:14;102816.00000000001;;;-3.1;88.62
68376;BME280;55318;52.068;5.188;2022-12-18T03:54:56;102813.00000000001;;;-3.15;88.9
68376;BME280;55318;52.068;5.188;2022-12-18T03:56:38;102814.00000000001;;;-3.16;88.57
68376;BME280;55318;52.068;5.188;2022-12-18T03:58:18;102808.0;;;-3.25;88.74
68376;BME280;55318;52.068;5.188;2022-12-18T04:01:40;102806.0;;;-3.27;88.51
68376;BME280;55318;52.068;5.188;2022-12-18T04:03:19;102795.0;;;-3.19;88.25
68376;BME280;55318;52.068;5.188;2022-12-18T04:04:59;102792.0;;;-3.23;88.53
68376;BME280;55318;52.068;5.188;2022-12-18T04:06:38;102790.00000000001;;;-3.3;88.36
68376;BME280;55318;52.068;5.188;2022-12-18T04:09:55;102788.00000000001;;;-3.26;88.45
68376;BME280;55318;52.068;5.188;2022-12-18T04:11:32;102782.0;;;-3.33;88.56
68376;BME280;55318;52.068;5.188;2022-12-18T04:13:09;102782.0;;;-3.2;88.39
68376;BME280;55318;52.068;5.188;2022-12-18T04:14:45;102778.0;;;-3.4;88.82
68376;BME280;55318;52.068;5.188;2022-12-18T04:17:57;102772.0;;;-3.48;88.69
68376;BME280;55318;52.068;5.188;2022-12-18T04:19:33;102776.0;;;-3.63;89.39
68376;BME280;55318;52.068;5.188;2022-12-18T04:21:10;102773.0;;;-3.58;89.22
68376;BME280;55318;52.068;5.188;2022-12-18T04:24:24;102775.0;;;-3.63;89.2
68376;BME280;55318;52.068;5.188;2022-12-18T04:26:00;102775.0;;;-3.55;88.91
68376;BME280;55318;52.068;5.188;2022-12-18T04:27:36;102777.0;;;-3.59;89.03
68376;BME280;55318;52.068;5.188;2022-12-18T04:30:49;102776.0;;;-3.64;89.16
68376;BME280;55318;52.068;5.188;2022-12-18T04:32:25;102780.0;;;-3.7;89.17
68376;BME280;55318;52.068;5.188;2022-12-18T04:34:01;102783.99999999999;;;-3.56;88.99
68376;BME280;55318;52.068;5.188;2022-12-18T04:35:37;102788.00000000001;;;-3.59;88.64
68376;BME280;55318;52.068;5.188;2022-12-18T04:38:49;102793.0;;;-3.59;88.77
68376;BME280;55318;52.068;5.188;2022-12-18T04:40:25;102796.0;;;-3.68;88.66
68376;BME280;55318;52.068;5.188;2022-12-18T04:42:02;102803.0;;;-3.74;88.98
68376;BME280;55318;52.068;5.188;2022-12-18T04:45:14;102802.0;;;-3.61;88.54
68376;BME280;55318;52.068;5.188;2022-12-18T04:46:50;102808.99999999999;;;-3.7;88.35
68376;BME280;55318;52.068;5.188;2022-12-18T04:48:26;102807.0;;;-3.65;88.16
68376;BME280;55318;52.068;5.188;2022-12-18T04:51:40;102806.0;;;-3.59;87.57
68376;BME280;55318;52.068;5.188;2022-12-18T04:53:16;102808.99999999999;;;-3.67;87.99
68376;BME280;55318;52.068;5.188;2022-12-18T04:54:53;102815.00000000001;;;-3.63;87.54
68376;BME280;55318;52.068;5.188;2022-12-18T04:58:07;102817.0;;;-3.68;87.46
68376;BME280;55318;52.068;5.188;2022-12-18T05:01:19;102819.0;;;-3.74;87.54
68376;BME280;55318;52.068;5.188;2022-12-18T05:02:55;102828.0;;;-3.72;87.33
68376;BME280;55318;52.068;5.188;2022-12-18T05:06:08;102827.0;;;-3.76;87.46
68376;BME280;55318;52.068;5.188;2022-12-18T05:07:45;102830.0;;;-3.82;87.7
68376;BME280;55318;52.068;5.188;2022-12-18T05:09:22;102822.0;;;-3.78;87.52
68376;BME280;55318;52.068;5.188;2022-12-18T05:12:37;102820.0;;;-3.76;87.4
68376;BME280;55318;52.068;5.188;2022-12-18T05:14:13;102828.0;;;-3.77;86.93
68376;BME280;55318;52.068;5.188;2022-12-18T05:15:52;102825.0;;;-3.85;87.19
68376;BME280;55318;52.068;5.188;2022-12-18T05:17:28;102826.0;;;-3.74;86.96
68376;BME280;55318;52.068;5.188;2022-12-18T05:20:41;102832.0;;;-3.88;87.4
68376;BME280;55318;52.068;5.188;2022-12-18T05:22:17;102832.0;;;-3.77;87.12
68376;BME280;55318;52.068;5.188;2022-12-18T05:23:53;102836.99999999999;;;-3.83;87.0
68376;BME280;55318;52.068;5.188;2022-12-18T05:27:06;102841.00000000001;;;-3.89;87.43
68376;BME280;55318;52.068;5.188;2022-12-18T05:28:42;102840.00000000001;;;-3.81;87.44
68376;BME280;55318;52.068;5.188;2022-12-18T05:30:18;102844.0;;;-3.71;86.9
68376;BME280;55318;52.068;5.188;2022-12-18T05:33:32;102840.00000000001;;;-3.74;87.02
68376;BME280;55318;52.068;5.188;2022-12-18T05:35:10;102833.99999999999;;;-3.78;87.0
68376;BME280;55318;52.068;5.188;2022-12-18T05:36:48;102833.0;;;-3.64;86.5
68376;BME280;55318;52.068;5.188;2022-12-18T05:38:26;102833.99999999999;;;-3.64;86.41
68376;BME280;55318;52.068;5.188;2022-12-18T05:41:40;102831.0;;;-3.68;86.65
68376;BME280;55318;52.068;5.188;2022-12-18T05:43:17;102832.0;;;-3.64;86.09
68376;BME280;55318;52.068;5.188;2022-12-18T05:44:54;102827.0;;;-3.57;86.04
68376;BME280;55318;52.068;5.188;2022-12-18T05:48:06;102824.0;;;-3.68;86.59
68376;BME280;55318;52.068;5.188;2022-12-18T05:49:43;102822.0;;;-3.67;86.41
68376;BME280;55318;52.068;5.188;2022-12-18T05:51:21;102819.0;;;-3.69;86.45
68376;BME280;55318;52.068;5.188;2022-12-18T05:54:34;102816.00000000001;;;-3.69;86.33
68376;BME280;55318;52.068;5.188;2022-12-18T05:56:11;102809.99999999999;;;-3.69;86.53
68376;BME280;55318;52.068;5.188;2022-12-18T05:57:50;102806.0;;;-3.68;86.43
68376;BME280;55318;52.068;5.188;2022-12-18T05:59:26;102807.0;;;-3.66;86.5
68376;BME280;55318;52.068;5.188;2022-12-18T06:02:46;102807.0;;;-3.53;86.02
68376;BME280;55318;52.068;5.188;2022-12-18T06:04:23;102801.0;;;-3.61;85.79
68376;BME280;55318;52.068;5.188;2022-12-18T06:09:11;102795.0;;;-3.72;86.62
68376;BME280;55318;52.068;5.188;2022-12-18T06:10:50;102791.00000000001;;;-3.75;86.48
68376;BME280;55318;52.068;5.188;2022-12-18T06:12:27;102788.00000000001;;;-3.83;86.77
68376;BME280;55318;52.068;5.188;2022-12-18T06:14:05;102786.99999999999;;;-3.75;86.66
68376;BME280;55318;52.068;5.188;2022-12-18T06:17:17;102788.00000000001;;;-3.82;86.53
68376;BME280;55318;52.068;5.188;2022-12-18T06:18:55;102782.0;;;-3.79;86.61
68376;BME280;55318;52.068;5.188;2022-12-18T06:20:32;102781.0;;;-3.73;86.34
68376;BME280;55318;52.068;5.188;2022-12-18T06:23:44;102778.0;;;-3.76;86.32
68376;BME280;55318;52.068;5.188;2022-12-18T06:25:20;102781.0;;;-3.73;85.96
68376;BME280;55318;52.068;5.188;2022-12-18T06:26:57;102788.00000000001;;;-3.86;86.55
68376;BME280;55318;52.068;5.188;2022-12-18T06:30:10;102794.0;;;-3.71;86.18
68376;BME280;55318;52.068;5.188;2022-12-18T06:31:46;102793.0;;;-3.89;86.49
68376;BME280;55318;52.068;5.188;2022-12-18T06:33:26;102788.00000000001;;;-3.78;86.42
68376;BME280;55318;52.068;5.188;2022-12-18T06:35:03;102782.0;;;-3.87;86.53
68376;BME280;55318;52.068;5.188;2022-12-18T06:38:16;102778.0;;;-3.8;86.23
68376;BME280;55318;52.068;5.188;2022-12-18T06:39:52;102776.0;;;-3.79;86.28
68376;BME280;55318;52.068;5.188;2022-12-18T06:41:28;102770.0;;;-3.83;86.07
68376;BME280;55318;52.068;5.188;2022-12-18T06:44:42;102772.0;;;-3.83;86.3
68376;BME280;55318;52.068;5.188;2022-12-18T06:46:18;102768.0;;;-3.86;86.17
68376;BME280;55318;52.068;5.188;2022-12-18T06:47:55;102761.99999999999;;;-3.83;85.82
68376;BME280;55318;52.068;5.188;2022-12-18T06:49:31;102755.0;;;-3.85;85.98
68376;BME280;55318;52.068;5.188;2022-12-18T06:52:44;102753.0;;;-3.75;85.78
68376;BME280;55318;52.068;5.188;2022-12-18T06:54:20;102749.0;;;-3.76;85.69
68376;BME280;55318;52.068;5.188;2022-12-18T06:56:00;102743.0;;;-3.78;85.65
68376;BME280;55318;52.068;5.188;2022-12-18T06:59:15;102740.00000000001;;;-3.74;85.56
68376;BME280;55318;52.068;5.188;2022-12-18T07:00:50;102742.0;;;-3.78;85.63
68376;BME280;55318;52.068;5.188;2022-12-18T07:02:27;102747.0;;;-3.72;85.51
68376;BME280;55318;52.068;5.188;2022-12-18T07:05:39;102742.0;;;-3.84;85.77
68376;BME280;55318;52.068;5.188;2022-12-18T07:07:16;102744.0;;;-3.91;86.0
68376;BME280;55318;52.068;5.188;2022-12-18T07:08:54;102740.00000000001;;;-3.81;85.86
68376;BME280;55318;52.068;5.188;2022-12-18T07:10:31;102738.00000000001;;;-3.9;85.96
68376;BME280;55318;52.068;5.188;2022-12-18T07:13:44;102730.0;;;-3.94;85.99
68376;BME280;55318;52.068;5.188;2022-12-18T07:15:20;102728.0;;;-4.08;86.54
68376;BME280;55318;52.068;5.188;2022-12-18T07:16:56;102730.0;;;-3.98;86.57
68376;BME280;55318;52.068;5.188;2022-12-18T07:20:10;102726.0;;;-3.94;86.36
68376;BME280;55318;52.068;5.188;2022-12-18T07:21:46;102723.0;;;-3.93;86.38
68376;BME280;55318;52.068;5.188;2022-12-18T07:23:22;102720.0;;;-3.93;86.43
68376;BME280;55318;52.068;5.188;2022-12-18T07:26:35;102719.0;;;-3.84;86.19
68376;BME280;55318;52.068;5.188;2022-12-18T07:28:11;102722.0;;;-3.78;85.76
68376;BME280;55318;52.068;5.188;2022-12-18T07:29:47;102721.0;;;-3.89;86.01
68376;BME280;55318;52.068;5.188;2022-12-18T07:31:24;102717.0;;;-3.82;86.13
68376;BME280;55318;52.068;5.188;2022-12-18T07:34:37;102717.0;;;-3.77;85.81
68376;BME280;55318;52.068;5.188;2022-12-18T07:36:13;102705.0;;;-3.78;85.67
68376;BME280;55318;52.068;5.188;2022-12-18T07:37:50;102703.0;;;-3.79;85.84
68376;BME280;55318;52.068;5.188;2022-12-18T07:41:04;102695.0;;;-3.74;85.74
68376;BME280;55318;52.068;5.188;2022-12-18T07:42:41;102692.0;;;-3.72;85.42
68376;BME280;55318;52.068;5.188;2022-12-18T07:44:17;102690.00000000001;;;-3.71;85.59
68376;BME280;55318;52.068;5.188;2022-12-18T07:47:34;102690.00000000001;;;-3.78;86.07
68376;BME280;55318;52.068;5.188;2022-12-18T07:49:10;102692.0;;;-3.72;85.8
68376;BME280;55318;52.068;5.188;2022-12-18T07:50:47;102683.99999999999;;;-3.72;85.94
68376;BME280;55318;52.068;5.188;2022-12-18T07:52:23;102677.0;;;-3.68;85.77
68376;BME280;55318;52.068;5.188;2022-12-18T07:55:35;102676.0;;;-3.54;85.16
68376;BME280;55318;52.068;5.188;2022-12-18T07:57:12;102672.0;;;-3.6;85.39
68376;BME280;55318;52.068;5.188;2022-12-18T07:58:48;102669.0;;;-3.55;85.64
68376;BME280;55318;52.068;5.188;2022-12-18T08:02:00;102666.00000000001;;;-3.6;85.56
68376;BME280;55318;52.068;5.188;2022-12-18T08:03:38;102667.0;;;-3.66;86.13
68376;BME280;55318;52.068;5.188;2022-12-18T08:05:15;102666.00000000001;;;-3.62;86.12
68376;BME280;55318;52.068;5.188;2022-12-18T08:08:28;102666.00000000001;;;-3.6;86.46
68376;BME280;55318;52.068;5.188;2022-12-18T08:10:05;102674.0;;;-3.57;86.43
68376;BME280;55318;52.068;5.188;2022-12-18T08:11:42;102668.0;;;-3.55;86.52
68376;BME280;55318;52.068;5.188;2022-12-18T08:13:19;102672.0;;;-3.4;86.04
68376;BME280;55318;52.068;5.188;2022-12-18T08:16:31;102676.0;;;-3.33;85.75
68376;BME280;55318;52.068;5.188;2022-12-18T08:18:08;102683.99999999999;;;-3.11;85.19
68376;BME280;55318;52.068;5.188;2022-12-18T08:19:43;102682.0;;;-3.21;85.33
68376;BME280;55318;52.068;5.188;2022-12-18T08:22:58;102692.0;;;-3.3;85.66
68376;BME280;55318;52.068;5.188;2022-12-18T08:24:34;102690.00000000001;;;-3.19;85.51
68376;BME280;55318;52.068;5.188;2022-12-18T08:26:11;102697.0;;;-3.24;85.68
68376;BME280;55318;52.068;5.188;2022-12-18T08:29:24;102694.0;;;-3.22;85.28
68376;BME280;55318;52.068;5.188;2022-12-18T08:31:00;102692.0;;;-3.27;85.55
68376;BME280;55318;52.068;5.188;2022-12-18T08:32:36;102692.0;;;-3.2;85.81
68376;BME280;55318;52.068;5.188;2022-12-18T08:34:11;102692.0;;;-3.11;85.51
68376;BME280;55318;52.068;5.188;2022-12-18T08:37:24;102699.0;;;-3.01;85.48
68376;BME280;55318;52.068;5.188;2022-12-18T08:39:00;102701.0;;;-2.89;85.05
68376;BME280;55318;52.068;5.188;2022-12-18T08:40:37;102694.0;;;-2.86;84.9
68376;BME280;55318;52.068;5.188;2022-12-18T08:43:48;102684.99999999999;;;-2.83;84.65
68376;BME280;55318;52.068;5.188;2022-12-18T08:45:25;102681.0;;;-2.87;84.5
68376;BME280;55318;52.068;5.188;2022-12-18T08:47:01;102674.0;;;-2.96;85.15
68376;BME280;55318;52.068;5.188;2022-12-18T08:50:14;102669.0;;;-2.91;85.12
68376;BME280;55318;52.068;5.188;2022-12-18T08:51:54;102669.0;;;-2.88;85.17
68376;BME280;55318;52.068;5.188;2022-12-18T08:53:30;102667.0;;;-2.64;85.05
68376;BME280;55318;52.068;5.188;2022-12-18T08:55:08;102669.0;;;-2.64;84.82
68376;BME280;55318;52.068;5.188;2022-12-18T08:58:21;102673.0;;;-2.48;84.31
68376;BME280;55318;52.068;5.188;2022-12-18T08:59:57;102671.0;;;-2.44;83.68
68376;BME280;55318;52.068;5.188;2022-12-18T09:01:33;102665.00000000001;;;-2.47;83.92
68376;BME280;55318;52.068;5.188;2022-12-18T09:04:48;102658.99999999999;;;-2.42;83.68
68376;BME280;55318;52.068;5.188;2022-12-18T09:06:24;102664.00000000001;;;-2.46;83.92
68376;BME280;55318;52.068;5.188;2022-12-18T09:08:00;102671.0;;;-2.49;83.95
68376;BME280;55318;52.068;5.188;2022-12-18T09:11:15;102673.0;;;-2.34;83.92
68376;BME280;55318;52.068;5.188;2022-12-18T09:12:54;102682.0;;;-2.25;83.85
68376;BME280;55318;52.068;5.188;2022-12-18T09:14:30;102680.0;;;-2.12;83.51
68376;BME280;55318;52.068;5.188;2022-12-18T09:16:06;102682.0;;;-2.29;83.69
68376;BME280;55318;52.068;5.188;2022-12-18T09:19:19;102680.0;;;-2.31;84.0
68376;BME280;55318;52.068;5.188;2022-12-18T09:20:55;102676.0;;;-2.26;84.01
68376;BME280;55318;52.068;5.188;2022-12-18T09:22:31;102680.0;;;-2.13;84.04
68376;BME280;55318;52.068;5.188;2022-12-18T09:25:49;102686.99999999999;;;-2.18;84.04
68376;BME280;55318;52.068;5.188;2022-12-18T09:27:25;102684.99999999999;;;-2.02;83.91
68376;BME280;55318;52.068;5.188;2022-12-18T09:29:02;102681.0;;;-2.06;83.75
68376;BME280;55318;52.068;5.188;2022-12-18T09:30:39;102670.0;;;-2.01;83.92
68376;BME280;55318;52.068;5.188;2022-12-18T09:33:54;102673.0;;;-1.89;83.62
68376;BME280;55318;52.068;5.188;2022-12-18T09:35:31;102675.0;;;-1.78;83.17
68376;BME280;55318;52.068;5.188;2022-12-18T09:37:07;102658.99999999999;;;-1.93;83.48
68376;BME280;55318;52.068;5.188;2022-12-18T09:40:23;102653.0;;;-1.84;83.34
68376;BME280;55318;52.068;5.188;2022-12-18T09:42:02;102652.0;;;-1.87;83.22
68376;BME280;55318;52.068;5.188;2022-12-18T09:43:43;102650.0;;;-1.92;83.62
68376;BME280;55318;52.068;5.188;2022-12-18T09:45:21;102646.0;;;-1.95;83.72
68376;BME280;55318;52.068;5.188;2022-12-18T09:48:48;102654.0;;;-1.77;83.48
68376;BME280;55318;52.068;5.188;2022-12-18T09:50:29;102653.0;;;-1.87;83.62
68376;BME280;55318;52.068;5.188;2022-12-18T09:52:12;102653.0;;;-1.74;83.47
68376;BME280;55318;52.068;5.188;2022-12-18T09:53:55;102642.0;;;-1.62;82.96
68376;BME280;55318;52.068;5.188;2022-12-18T09:57:15;102642.0;;;-1.46;82.99
68376;BME280;55318;52.068;5.188;2022-12-18T09:58:58;102633.99999999999;;;-1.24;82.23
68376;BME280;55318;52.068;5.188;2022-12-18T10:00:35;102633.99999999999;;;-1.37;81.98
68376;BME280;55318;52.068;5.188;2022-12-18T10:02:15;102633.99999999999;;;-1.49;82.56
68376;BME280;55318;52.068;5.188;2022-12-18T10:05:43;102626.0;;;-1.56;82.58
68376;BME280;55318;52.068;5.188;2022-12-18T10:07:28;102630.0;;;-1.48;82.45
68376;BME280;55318;52.068;5.188;2022-12-18T10:09:15;102628.0;;;-1.38;82.09
68376;BME280;55318;52.068;5.188;2022-12-18T10:11:00;102630.0;;;-1.42;82.25
68376;BME280;55318;52.068;5.188;2022-12-18T10:12:50;102632.0;;;-1.26;81.77
68376;BME280;55318;52.068;5.188;2022-12-18T10:14:37;102634.99999999999;;;-1.1;81.47
68376;BME280;55318;52.068;5.188;2022-12-18T10:18:07;102634.99999999999;;;-1.0;80.94
68376;BME280;55318;52.068;5.188;2022-12-18T10:19:59;102636.99999999999;;;-1.12;81.27
68376;BME280;55318;52.068;5.188;2022-12-18T10:21:43;102631.0;;;-1.26;81.42
68376;BME280;55318;52.068;5.188;2022-12-18T10:23:29;102627.0;;;-1.27;81.73
68376;BME280;55318;52.068;5.188;2022-12-18T10:25:16;102633.0;;;-1.37;81.59
68376;BME280;55318;52.068;5.188;2022-12-18T10:28:45;102633.0;;;-1.3;81.58
68376;BME280;55318;52.068;5.188;2022-12-18T10:30:23;102620.0;;;-1.15;81.61
68376;BME280;55318;52.068;5.188;2022-12-18T10:32:02;102620.0;;;-1.18;81.52
68376;BME280;55318;52.068;5.188;2022-12-18T10:33:38;102611.99999999999;;;-1.1;81.64
68376;BME280;55318;52.068;5.188;2022-12-18T10:36:56;102615.00000000001;;;-1.04;81.42
68376;BME280;55318;52.068;5.188;2022-12-18T10:38:33;102607.0;;;-1.08;81.2
68376;BME280;55318;52.068;5.188;2022-12-18T10:40:11;102606.0;;;-0.93;81.02
68376;BME280;55318;52.068;5.188;2022-12-18T10:43:27;102602.0;;;-0.98;80.87
68376;BME280;55318;52.068;5.188;2022-12-18T10:45:09;102600.0;;;-0.81;80.91
68376;BME280;55318;52.068;5.188;2022-12-18T10:46:53;102595.0;;;-0.9;80.49